Time;durP1;ratioP1;P1;durP2;ratioP2;P2;SDS_P1;SDS_P2;PMS_P1;PMS_P2;Temp;Humidity;BMP_temperature;BMP_pressure;BME280_temperature;BME280_humidity;BME280_pressure;Samples;Min_cycle;Max_cycle;Signal;HPM_P1;HPM_P2
2022/09/10 00:01:19;;;;;;;6.72;1.60;;;19.60;99.90;;;;;;5116280;28;20435;-82
2022/09/10 00:03:48;;;;;;;1.33;0.55;;;19.70;99.90;;;;;;5117040;28;20366;-81
2022/09/10 00:06:17;;;;;;;4.10;0.82;;;19.70;99.90;;;;;;5116533;28;20517;-80
2022/09/10 00:08:45;;;;;;;1.35;0.50;;;19.60;99.90;;;;;;5116175;28;20746;-81
2022/09/10 00:11:16;;;;;;;45.90;7.38;;;19.50;99.80;;;;;;5116167;28;20712;-80
2022/09/10 00:13:44;;;;;;;0.70;0.30;;;19.60;99.90;;;;;;5116022;28;20478;-82
2022/09/10 00:16:14;;;;;;;1.20;0.20;;;19.70;98.20;;;;;;5115971;28;20362;-81
2022/09/10 00:18:41;;;;;;;0.43;0.30;;;19.80;96.50;;;;;;5116219;28;20370;-82
2022/09/10 00:21:12;;;;;;;0.65;0.25;;;19.90;95.90;;;;;;5115811;28;20876;-81
2022/09/10 00:23:39;;;;;;;1.60;0.40;;;20.10;95.10;;;;;;5115973;28;20734;-82
2022/09/10 00:26:27;;;;;;;1.67;0.52;;;20.10;94.60;;;;;;5116058;28;20405;-82
2022/09/10 00:28:58;;;;;;;0.80;0.40;;;20.00;95.20;;;;;;5116020;28;20877;-79
2022/09/10 00:31:26;;;;;;;1.30;0.30;;;20.10;94.70;;;;;;5115324;28;20367;-79
2022/09/10 00:33:53;;;;;;;0.77;0.20;;;20.10;93.80;;;;;;5115397;28;20378;-82
2022/09/10 00:36:26;;;;;;;0.47;0.30;;;20.10;92.30;;;;;;5115976;28;20678;-82
2022/09/10 00:38:56;;;;;;;1.58;0.40;;;20.10;92.50;;;;;;5116066;28;20845;-82
2022/09/10 00:41:24;;;;;;;0.45;0.35;;;20.10;92.60;;;;;;5097693;28;20414;-82
2022/09/10 00:44:16;;;;;;;0.50;0.30;;;20.40;92.10;;;;;;5116356;28;20363;-83
2022/09/10 00:46:49;;;;;;;0.70;0.30;;;20.60;91.40;;;;;;5075793;28;20405;-80
2022/09/10 00:49:20;;;;;;;0.82;0.40;;;20.60;90.30;;;;;;5076737;28;20378;-89
2022/09/10 00:51:50;;;;;;;0.85;0.30;;;20.40;91.00;;;;;;5073785;28;20410;-81
2022/09/10 00:54:21;;;;;;;0.60;0.38;;;20.10;89.80;;;;;;5072912;28;20402;-82
2022/09/10 00:56:48;;;;;;;0.60;0.30;;;19.90;90.90;;;;;;5073277;28;20412;-80
2022/09/10 00:59:20;;;;;;;0.43;0.30;;;19.70;91.20;;;;;;5072810;28;20864;-80
2022/09/10 01:01:48;;;;;;;1.30;0.32;;;19.60;91.00;;;;;;5072762;28;20734;-80
2022/09/10 01:04:16;;;;;;;1.80;0.50;;;19.40;91.30;;;;;;5072607;28;20487;-85
2022/09/10 01:06:45;;;;;;;0.77;0.40;;;19.40;91.80;;;;;;5055722;28;20811;-86
2022/09/10 01:09:14;;;;;;;0.67;0.43;;;19.40;92.90;;;;;;5072189;28;20386;-82
2022/09/10 01:12:18;;;;;;;0.50;0.30;;;19.40;93.60;;;;;;5072450;28;20382;-83
2022/09/10 01:14:58;;;;;;;0.40;0.30;;;19.60;92.50;;;;;;5072588;28;20405;-84
2022/09/10 01:18:13;;;;;;;0.45;0.30;;;20.00;91.40;;;;;;5073234;28;20473;-78
2022/09/10 01:20:50;;;;;;;0.57;0.40;;;20.30;88.70;;;;;;4986311;28;20497;-80
2022/09/10 01:23:38;;;;;;;0.57;0.20;;;20.50;85.70;;;;;;4999715;28;20379;-84
2022/09/10 01:26:21;;;;;;;0.20;0.20;;;20.90;83.80;;;;;;5012700;28;20371;-83
2022/09/10 01:29:08;;;;;;;1.30;0.30;;;21.20;77.90;;;;;;5013656;28;20875;-75
2022/09/10 01:31:38;;;;;;;0.35;0.20;;;21.60;75.60;;;;;;5014055;28;20376;-79
2022/09/10 01:34:18;;;;;;;1.25;1.10;;;22.00;74.80;;;;;;5012091;28;20894;-82
2022/09/10 01:36:49;;;;;;;1.00;0.20;;;22.50;71.10;;;;;;5013513;28;20414;-79
2022/09/10 01:39:20;;;;;;;0.20;0.20;;;22.80;71.40;;;;;;5012411;28;20461;-83
2022/09/10 01:41:49;;;;;;;0.70;0.20;;;23.00;68.50;;;;;;5012137;28;20875;-84
2022/09/10 01:44:47;;;;;;;0.50;0.20;;;22.70;69.20;;;;;;5011251;28;20399;-84
2022/09/10 01:47:53;;;;;;;0.20;0.20;;;23.10;69.10;;;;;;5011810;28;20937;-80
2022/09/10 01:50:38;;;;;;;0.75;0.20;;;23.20;64.20;;;;;;4974080;28;20379;-81
2022/09/10 01:53:06;;;;;;;0.20;0.20;;;22.70;65.70;;;;;;4973034;28;20391;-88
2022/09/10 01:56:02;;;;;;;0.30;0.10;;;23.30;66.50;;;;;;4973486;28;20386;-86
2022/09/10 01:58:37;;;;;;;0.13;0.13;;;23.90;64.00;;;;;;4973278;28;20453;-84
2022/09/10 02:01:28;;;;;;;0.22;0.15;;;24.40;61.60;;;;;;4972885;28;20918;-80
2022/09/10 02:04:04;;;;;;;1.00;0.13;;;24.70;63.10;;;;;;4972959;28;20856;-78
2022/09/10 02:06:37;;;;;;;1.13;0.20;;;24.90;57.50;;;;;;4973504;28;20454;-82
2022/09/10 02:09:06;;;;;;;0.85;0.22;;;24.70;57.90;;;;;;4972704;28;20398;-85
2022/09/10 02:11:53;;;;;;;0.23;0.10;;;24.90;59.70;;;;;;4973645;28;20390;-81
2022/09/10 02:14:21;;;;;;;0.10;0.10;;;25.00;59.30;;;;;;4974011;28;20406;-84
2022/09/10 02:16:57;;;;;;;1.05;0.20;;;24.90;59.50;;;;;;4972673;28;20876;-89
2022/09/10 02:19:26;;;;;;;0.28;0.28;;;24.90;59.90;;;;;;4972620;28;20477;-82
2022/09/10 02:21:55;;;;;;;0.28;0.20;;;24.50;59.90;;;;;;4972256;28;20545;-90
2022/09/10 02:24:23;;;;;;;0.60;0.20;;;23.80;60.10;;;;;;4972341;28;20521;-84
2022/09/10 02:26:50;;;;;;;0.30;0.25;;;22.90;60.40;;;;;;5003542;28;20379;-81
2022/09/10 02:29:18;;;;;;;0.20;0.20;;;22.50;61.20;;;;;;5051182;28;20380;-81
2022/09/10 02:31:46;;;;;;;0.10;0.10;;;22.30;62.50;;;;;;5050984;28;20854;-80
2022/09/10 02:34:14;;;;;;;0.60;0.20;;;22.10;63.00;;;;;;5053036;28;20408;-83
2022/09/10 02:36:42;;;;;;;0.30;0.20;;;22.10;63.70;;;;;;5114901;28;20390;-84
2022/09/10 02:39:09;;;;;;;1.45;0.40;;;22.60;61.30;;;;;;5118844;28;20367;-84
2022/09/10 02:41:40;;;;;;;0.20;0.20;;;23.20;63.20;;;;;;5118382;28;20366;-82
2022/09/10 02:44:07;;;;;;;0.50;0.30;;;23.10;63.40;;;;;;5115657;28;20435;-84
2022/09/10 02:46:34;;;;;;;0.67;0.20;;;22.60;63.20;;;;;;5115083;28;20362;-84
2022/09/10 02:49:02;;;;;;;0.10;0.10;;;22.30;63.30;;;;;;5114315;28;20385;-84
2022/09/10 02:51:29;;;;;;;2.28;0.40;;;22.10;63.50;;;;;;5113591;28;20369;-81
2022/09/10 02:53:56;;;;;;;0.90;0.40;;;22.40;64.90;;;;;;5113402;28;20478;-79
2022/09/10 02:56:23;;;;;;;0.13;0.10;;;23.30;63.10;;;;;;5113518;28;20407;-84
2022/09/10 02:58:51;;;;;;;0.10;0.10;;;24.20;59.20;;;;;;5113345;28;20993;-84
2022/09/10 03:01:21;;;;;;;0.60;0.20;;;24.20;58.60;;;;;;5113295;28;20385;-84
2022/09/10 03:03:57;;;;;;;0.40;0.20;;;24.80;60.30;;;;;;5113641;28;20426;-84
2022/09/10 03:06:26;;;;;;;0.53;0.20;;;25.10;58.20;;;;;;5113186;28;20382;-84
2022/09/10 03:08:56;;;;;;;0.20;0.20;;;25.40;56.80;;;;;;5112817;28;20379;-84
2022/09/10 03:11:24;;;;;;;0.25;0.10;;;25.50;56.80;;;;;;5113146;28;20850;-79
2022/09/10 03:13:51;;;;;;;0.30;0.20;;;24.80;57.20;;;;;;5113141;28;20391;-85
2022/09/10 03:16:20;;;;;;;1.30;0.20;;;24.80;57.70;;;;;;5113258;28;20375;-79
2022/09/10 03:18:47;;;;;;;0.50;0.30;;;25.50;57.10;;;;;;5112902;28;20374;-87
2022/09/10 03:21:20;;;;;;;0.30;0.20;;;26.00;56.40;;;;;;5112632;28;20462;-81
2022/09/10 03:23:49;;;;;;;0.30;0.25;;;26.40;56.40;;;;;;5094510;28;20404;-82
2022/09/10 03:26:18;;;;;;;7.38;1.48;;;26.60;55.30;;;;;;5112785;28;20403;-80
2022/09/10 03:28:46;;;;;;;0.85;0.40;;;27.30;52.90;;;;;;5112613;28;20376;-80
2022/09/10 03:31:14;;;;;;;1.20;0.30;;;27.10;52.90;;;;;;5112630;28;20889;-85
2022/09/10 03:33:42;;;;;;;0.25;0.10;;;27.10;52.90;;;;;;5094353;28;20391;-86
2022/09/10 03:36:12;;;;;;;0.10;0.10;;;26.10;51.20;;;;;;5112762;28;20385;-87
2022/09/10 03:38:39;;;;;;;0.50;0.20;;;25.20;53.30;;;;;;5112645;28;20362;-85
2022/09/10 03:41:07;;;;;;;0.40;0.20;;;25.70;53.00;;;;;;5094763;28;20431;-79
2022/09/10 03:43:34;;;;;;;0.35;0.20;;;26.30;52.90;;;;;;5112465;28;20392;-82
2022/09/10 03:46:01;;;;;;;0.30;0.20;;;26.10;52.60;;;;;;5112778;28;20449;-82
2022/09/10 03:48:29;;;;;;;0.70;0.10;;;24.80;54.50;;;;;;5112473;28;20446;-84
2022/09/10 03:50:56;;;;;;;0.20;0.20;;;24.10;55.50;;;;;;5112458;28;20371;-82
2022/09/10 03:53:23;;;;;;;0.37;0.20;;;23.60;57.80;;;;;;5112243;28;20377;-81
2022/09/10 03:55:54;;;;;;;0.35;0.10;;;24.50;56.50;;;;;;5112403;28;20382;-83
2022/09/10 03:58:21;;;;;;;0.20;0.20;;;25.40;53.90;;;;;;5112313;28;20363;-82
2022/09/10 04:00:48;;;;;;;0.90;0.17;;;26.10;52.00;;;;;;5112120;28;20432;-82
2022/09/10 04:03:16;;;;;;;0.80;0.13;;;26.60;51.20;;;;;;5112534;28;20366;-79
2022/09/10 04:05:43;;;;;;;0.17;0.15;;;26.10;50.80;;;;;;5112503;28;20442;-80
2022/09/10 04:08:11;;;;;;;0.10;0.10;;;25.30;51.70;;;;;;5114390;28;20446;-82
2022/09/10 04:10:43;;;;;;;0.30;0.20;;;24.70;52.30;;;;;;5115704;28;20367;-79
2022/09/10 04:13:10;;;;;;;0.30;0.10;;;24.80;52.70;;;;;;5115907;28;20371;-78
2022/09/10 04:15:38;;;;;;;0.35;0.10;;;24.20;54.00;;;;;;5116639;28;20390;-80
2022/09/10 04:18:07;;;;;;;0.10;0.10;;;24.80;52.40;;;;;;5116390;28;20881;-79
2022/09/10 04:20:35;;;;;;;0.68;0.10;;;24.80;51.60;;;;;;5116922;28;20378;-79
2022/09/10 04:23:02;;;;;;;0.40;0.20;;;25.10;52.40;;;;;;5116546;28;20850;-79
2022/09/10 04:25:29;;;;;;;0.10;0.00;;;25.40;53.90;;;;;;5098421;28;20374;-81
2022/09/10 04:27:56;;;;;;;0.70;0.20;;;25.80;52.10;;;;;;5122954;28;20378;-80
2022/09/10 04:30:24;;;;;;;0.88;0.10;;;26.00;52.10;;;;;;5102140;28;20374;-82
2022/09/10 04:32:52;;;;;;;0.85;0.10;;;26.30;50.60;;;;;;5115921;28;20850;-82
2022/09/10 04:35:20;;;;;;;9.20;4.43;;;26.00;50.40;;;;;;5116466;28;20404;-83
2022/09/10 04:37:47;;;;;;;0.20;0.10;;;26.00;51.50;;;;;;5115738;28;20420;-82
2022/09/10 04:40:14;;;;;;;1.60;1.00;;;25.90;51.00;;;;;;5097505;28;20721;-83
2022/09/10 04:42:42;;;;;;;1.77;1.00;;;25.60;50.70;;;;;;5115759;28;20409;-80
2022/09/10 04:45:09;;;;;;;4.03;2.05;;;25.70;51.60;;;;;;5115445;28;20857;-80
2022/09/10 04:47:37;;;;;;;1.10;0.20;;;26.30;50.60;;;;;;5097903;28;20382;-78
2022/09/10 04:50:05;;;;;;;2.30;1.10;;;26.00;49.10;;;;;;5115635;28;20738;-82
2022/09/10 04:52:33;;;;;;;0.15;0.10;;;25.60;50.30;;;;;;5115515;28;20371;-81
2022/09/10 04:55:00;;;;;;;0.38;0.10;;;25.00;50.90;;;;;;5112245;28;20882;-81
2022/09/10 04:57:27;;;;;;;0.10;0.10;;;24.70;52.20;;;;;;5115290;28;20370;-81
2022/09/10 04:59:55;;;;;;;0.10;0.10;;;24.10;53.40;;;;;;5115277;28;20731;-81
2022/09/10 05:02:23;;;;;;;0.20;0.10;;;23.70;54.10;;;;;;5115672;28;20416;-81
2022/09/10 05:04:50;;;;;;;0.20;0.10;;;24.20;54.90;;;;;;5115189;28;20370;-83
2022/09/10 05:07:17;;;;;;;0.10;0.10;;;24.10;53.60;;;;;;5115444;28;20378;-83
2022/09/10 05:09:44;;;;;;;0.88;0.05;;;23.40;56.60;;;;;;5114860;28;20390;-80
2022/09/10 05:12:11;;;;;;;0.50;0.10;;;22.70;59.90;;;;;;5115150;28;20382;-83
2022/09/10 05:14:38;;;;;;;0.10;0.10;;;22.20;61.60;;;;;;5114870;28;20437;-81
2022/09/10 05:17:06;;;;;;;0.20;0.10;;;21.90;63.10;;;;;;5114967;28;20370;-81
2022/09/10 05:19:33;;;;;;;0.10;0.10;;;21.80;64.30;;;;;;5115125;28;20367;-81
2022/09/10 05:22:00;;;;;;;0.40;0.30;;;21.80;64.10;;;;;;5114838;28;20722;-81
2022/09/10 05:24:27;;;;;;;0.57;0.30;;;22.40;66.10;;;;;;5097055;28;20370;-82
2022/09/10 05:26:55;;;;;;;0.20;0.20;;;23.50;62.30;;;;;;5114917;28;20401;-82
2022/09/10 05:29:22;;;;;;;0.55;0.20;;;23.30;61.40;;;;;;5114750;28;20382;-81
2022/09/10 05:31:49;;;;;;;1.73;0.20;;;23.40;60.10;;;;;;5114511;28;20384;-81
2022/09/10 05:34:17;;;;;;;0.52;0.10;;;24.00;59.20;;;;;;5114530;28;20399;-81
2022/09/10 05:36:44;;;;;;;0.22;0.10;;;24.00;59.10;;;;;;5114711;28;20374;-81
2022/09/10 05:39:11;;;;;;;0.15;0.10;;;24.50;57.80;;;;;;5115976;28;20468;-80
2022/09/10 05:41:38;;;;;;;0.00;0.00;;;24.60;55.40;;;;;;5118964;28;20370;-81
2022/09/10 05:44:05;;;;;;;0.77;0.60;;;24.80;54.80;;;;;;5119678;28;20382;-81
2022/09/10 05:46:33;;;;;;;0.30;0.30;;;25.40;54.90;;;;;;5120416;28;20362;-81
2022/09/10 05:49:00;;;;;;;1.17;0.85;;;25.50;53.80;;;;;;5119150;28;20375;-81
2022/09/10 05:51:29;;;;;;;0.98;0.88;;;25.80;53.70;;;;;;5117056;28;20866;-80
2022/09/10 05:53:57;;;;;;;1.08;0.90;;;25.50;52.30;;;;;;5115976;28;20415;-80
2022/09/10 05:56:24;;;;;;;0.38;0.38;;;25.20;52.60;;;;;;5115588;28;20909;-75
2022/09/10 05:58:52;;;;;;;1.90;0.90;;;24.80;54.10;;;;;;5115846;28;20382;-80
2022/09/10 06:01:19;;;;;;;4.70;2.58;;;24.50;54.80;;;;;;5115233;28;20378;-78
2022/09/10 06:03:47;;;;;;;0.55;0.40;;;24.70;55.00;;;;;;5114778;28;20768;-79
2022/09/10 06:06:14;;;;;;;2.53;1.30;;;24.70;54.60;;;;;;5116119;28;20873;-77
2022/09/10 06:08:42;;;;;;;0.57;0.57;;;24.80;53.80;;;;;;5116375;28;20392;-77
2022/09/10 06:11:10;;;;;;;1.73;1.30;;;25.00;53.70;;;;;;5117330;28;20375;-78
2022/09/10 06:13:41;;;;;;;2.00;0.63;;;24.60;54.50;;;;;;5120598;28;20386;-79
2022/09/10 06:16:08;;;;;;;1.23;1.10;;;24.00;55.00;;;;;;5121529;28;20393;-79
2022/09/10 06:18:35;;;;;;;1.50;0.70;;;23.60;55.60;;;;;;5117521;28;20446;-81
2022/09/10 06:21:11;;;;;;;0.47;0.30;;;23.20;57.70;;;;;;5128741;28;20414;-80
2022/09/10 06:23:39;;;;;;;2.92;1.80;;;23.10;57.80;;;;;;5136453;28;20343;-79
2022/09/10 06:26:12;;;;;;;0.60;0.20;;;23.10;59.00;;;;;;5135750;28;20363;-80
2022/09/10 06:28:39;;;;;;;0.20;0.10;;;22.80;58.10;;;;;;5134850;28;20359;-79
2022/09/10 06:31:10;;;;;;;0.60;0.50;;;22.50;58.40;;;;;;5115748;28;20370;-79
2022/09/10 06:33:40;;;;;;;3.25;1.30;;;22.50;59.70;;;;;;5115105;28;20397;-78
2022/09/10 06:36:08;;;;;;;0.40;0.20;;;22.60;59.40;;;;;;5115714;28;20849;-81
2022/09/10 06:38:35;;;;;;;0.82;0.30;;;22.50;59.00;;;;;;5114745;28;20401;-81
2022/09/10 06:41:05;;;;;;;0.30;0.30;;;22.30;60.60;;;;;;5114335;28;20478;-78
2022/09/10 06:43:35;;;;;;;0.28;0.15;;;22.30;59.80;;;;;;5114099;28;20726;-81
2022/09/10 06:46:14;;;;;;;0.40;0.40;;;22.30;59.60;;;;;;5114215;28;20439;-80
2022/09/10 06:48:42;;;;;;;1.08;0.30;;;22.20;60.40;;;;;;5113824;28;20442;-79
2022/09/10 06:51:13;;;;;;;0.30;0.20;;;22.40;60.00;;;;;;5114364;28;20370;-78
2022/09/10 06:53:41;;;;;;;0.10;0.10;;;22.50;59.90;;;;;;5113754;28;20733;-81
2022/09/10 06:56:11;;;;;;;0.70;0.20;;;22.00;60.60;;;;;;5095543;28;20382;-78
2022/09/10 06:58:39;;;;;;;14.05;1.27;;;21.10;62.10;;;;;;5113820;28;20355;-82
2022/09/10 07:01:14;;;;;;;0.70;0.20;;;20.00;62.90;;;;;;5113435;28;20464;-82
2022/09/10 07:03:42;;;;;;;0.30;0.20;;;20.70;65.60;;;;;;5113774;28;20423;-84
2022/09/10 07:06:12;;;;;;;1.50;0.20;;;20.50;64.60;;;;;;5113687;28;20495;-83
2022/09/10 07:08:40;;;;;;;0.50;0.20;;;20.50;63.90;;;;;;5113578;28;20508;-84
2022/09/10 07:11:11;;;;;;;0.70;0.10;;;20.40;64.10;;;;;;5113851;28;20374;-83
2022/09/10 07:13:39;;;;;;;0.30;0.20;;;20.50;64.00;;;;;;5113873;28;20378;-82
2022/09/10 07:16:07;;;;;;;0.20;0.20;;;20.40;63.30;;;;;;5113731;28;20370;-82
2022/09/10 07:18:34;;;;;;;0.95;0.50;;;20.30;64.20;;;;;;5113886;28;20367;-81
2022/09/10 07:21:08;;;;;;;0.40;0.40;;;20.20;65.30;;;;;;5113264;28;20885;-82
2022/09/10 07:23:39;;;;;;;0.73;0.40;;;20.30;65.30;;;;;;5113505;28;20410;-82
2022/09/10 07:26:11;;;;;;;0.93;0.30;;;20.40;65.30;;;;;;5113877;28;20367;-82
2022/09/10 07:28:41;;;;;;;0.20;0.20;;;20.10;65.30;;;;;;5113817;28;20688;-83
2022/09/10 07:31:14;;;;;;;0.93;0.35;;;19.90;65.60;;;;;;5113249;28;20466;-82
2022/09/10 07:33:42;;;;;;;0.30;0.30;;;19.70;66.50;;;;;;5113366;28;20394;-85
2022/09/10 07:36:11;;;;;;;0.40;0.30;;;19.70;66.80;;;;;;5095266;28;20371;-82
2022/09/10 07:38:39;;;;;;;0.60;0.30;;;19.60;66.60;;;;;;5113158;28;20379;-83
2022/09/10 07:41:10;;;;;;;0.25;0.20;;;19.50;67.00;;;;;;5113258;28;20355;-80
2022/09/10 07:43:38;;;;;;;0.52;0.30;;;19.50;67.70;;;;;;5116512;28;20696;-82
2022/09/10 07:46:07;;;;;;;0.43;0.30;;;19.50;68.40;;;;;;5117728;28;20402;-82
2022/09/10 07:48:34;;;;;;;0.60;0.25;;;19.40;68.10;;;;;;5118696;28;20481;-82
2022/09/10 07:51:03;;;;;;;0.80;0.20;;;19.40;68.10;;;;;;5116793;28;20510;-82
2022/09/10 07:53:31;;;;;;;0.40;0.30;;;19.40;68.30;;;;;;5116362;28;20362;-82
2022/09/10 07:56:03;;;;;;;0.60;0.38;;;19.40;69.20;;;;;;5116824;28;20434;-85
2022/09/10 07:58:32;;;;;;;1.70;0.50;;;19.30;69.50;;;;;;5116956;28;20850;-82
2022/09/10 08:01:01;;;;;;;0.90;0.60;;;19.20;70.40;;;;;;5116552;28;20492;-81
2022/09/10 08:03:29;;;;;;;1.95;0.60;;;19.10;70.50;;;;;;5116604;28;20455;-80
2022/09/10 08:06:01;;;;;;;2.05;0.90;;;19.00;71.70;;;;;;5117380;28;20376;-81
2022/09/10 08:08:34;;;;;;;1.58;0.98;;;18.90;71.80;;;;;;5116555;28;20374;-80
2022/09/10 08:11:17;;;;;;;3.15;0.90;;;18.90;72.00;;;;;;5116803;28;20375;-82
2022/09/10 08:13:50;;;;;;;2.90;1.10;;;18.80;73.10;;;;;;5117443;28;20452;-80
2022/09/10 08:16:23;;;;;;;2.40;0.90;;;18.70;73.40;;;;;;5117972;28;20371;-81
2022/09/10 08:18:50;;;;;;;1.75;0.93;;;18.60;73.50;;;;;;5117272;28;20355;-81
2022/09/10 08:21:18;;;;;;;1.75;0.95;;;18.60;75.20;;;;;;5116546;28;20378;-80
2022/09/10 08:23:53;;;;;;;1.52;0.95;;;18.40;75.30;;;;;;5116034;28;20465;-80
2022/09/10 08:26:23;;;;;;;2.10;1.00;;;18.30;76.90;;;;;;5097849;28;20379;-81
2022/09/10 08:28:51;;;;;;;1.52;1.05;;;18.30;77.60;;;;;;5116757;28;20367;-82
2022/09/10 08:31:18;;;;;;;1.42;1.23;;;18.30;78.10;;;;;;5098260;28;20407;-82
2022/09/10 08:33:53;;;;;;;1.48;1.15;;;18.30;79.30;;;;;;5115825;28;20440;-82
2022/09/10 08:36:21;;;;;;;1.27;1.17;;;18.20;79.50;;;;;;5113565;28;20416;-81
2022/09/10 08:38:49;;;;;;;1.55;1.30;;;18.10;80.30;;;;;;5097862;28;20383;-80
2022/09/10 08:41:48;;;;;;;2.45;1.20;;;18.00;82.00;;;;;;5115948;28;20386;-86
2022/09/10 08:44:26;;;;;;;2.60;1.60;;;17.90;82.60;;;;;;5116362;28;20359;-85
2022/09/10 08:46:56;;;;;;;1.73;1.10;;;17.80;84.20;;;;;;5116980;28;20367;-82
2022/09/10 08:49:51;;;;;;;1.10;0.90;;;17.80;85.40;;;;;;5118364;28;20363;-91
2022/09/10 08:52:29;;;;;;;2.78;1.50;;;17.80;85.50;;;;;;5120193;28;20774;-91
2022/09/10 08:55:22;;;;;;;3.20;2.05;;;17.70;87.60;;;;;;5102959;28;20402;-84
2022/09/10 08:57:58;;;;;;;4.25;2.35;;;17.70;87.80;;;;;;5119712;28;20405;-84
2022/09/10 09:00:33;;;;;;;3.22;2.10;;;17.60;89.20;;;;;;5117944;28;20425;-84
2022/09/10 09:03:09;;;;;;;3.95;3.45;;;17.50;89.70;;;;;;5116569;28;20379;-87
2022/09/10 09:06:07;;;;;;;5.28;4.25;;;17.50;90.10;;;;;;5116185;28;20391;-83
2022/09/10 09:08:47;;;;;;;6.03;4.32;;;17.40;91.20;;;;;;5115379;28;20431;-87
2022/09/10 09:11:34;;;;;;;3.03;1.73;;;17.40;92.20;;;;;;5115595;28;20424;-86
2022/09/10 09:14:13;;;;;;;2.80;1.40;;;17.20;92.80;;;;;;5116363;28;20398;-82
2022/09/10 09:16:58;;;;;;;2.70;1.50;;;17.20;93.30;;;;;;5115364;28;20858;-83
2022/09/10 09:19:39;;;;;;;1.77;1.30;;;17.20;93.60;;;;;;5115000;28;20378;-85
2022/09/10 09:22:44;;;;;;;3.50;1.30;;;17.00;94.20;;;;;;5115646;28;20367;-82
2022/09/10 09:25:46;;;;;;;1.70;1.30;;;16.90;95.30;;;;;;5032921;28;20366;-83
2022/09/10 09:28:46;;;;;;;2.67;1.30;;;16.80;96.10;;;;;;5012927;28;20426;-82
2022/09/10 09:31:37;;;;;;;2.97;1.33;;;16.70;96.70;;;;;;5012261;28;20802;-82
2022/09/10 09:34:31;;;;;;;2.85;1.20;;;16.50;97.40;;;;;;5012140;28;20391;-81
2022/09/10 09:37:10;;;;;;;1.73;1.30;;;16.40;98.50;;;;;;5012361;28;20470;-86
2022/09/10 09:40:15;;;;;;;2.00;1.30;;;16.40;98.90;;;;;;5012099;28;20373;-82
2022/09/10 09:42:54;;;;;;;3.05;1.25;;;16.40;99.10;;;;;;4954226;29;20376;-81
2022/09/10 09:45:42;;;;;;;1.75;1.50;;;16.30;99.30;;;;;;4953966;28;20391;-81
2022/09/10 09:48:15;;;;;;;1.55;1.30;;;16.30;99.90;;;;;;4953902;29;20376;-82
2022/09/10 09:50:50;;;;;;;1.52;1.35;;;16.20;99.90;;;;;;4953561;29;20396;-83
2022/09/10 09:53:24;;;;;;;1.35;1.20;;;16.10;99.90;;;;;;4953522;29;20376;-83
2022/09/10 09:56:14;;;;;;;1.83;1.30;;;15.90;99.90;;;;;;4953686;29;20399;-84
2022/09/10 09:58:48;;;;;;;3.05;1.90;;;15.90;99.90;;;;;;4954136;29;20451;-82
2022/09/10 10:01:26;;;;;;;1.90;1.40;;;15.90;99.90;;;;;;4957592;28;20462;-88
2022/09/10 10:04:00;;;;;;;1.87;1.40;;;15.90;99.90;;;;;;4995086;28;20526;-82
2022/09/10 10:06:52;;;;;;;2.00;1.80;;;15.90;99.90;;;;;;5011021;28;20390;-82
2022/09/10 10:09:33;;;;;;;2.08;1.70;;;15.90;99.90;;;;;;5011210;28;20756;-82
2022/09/10 10:12:13;;;;;;;3.80;3.35;;;15.80;99.90;;;;;;5011323;28;20376;-82
2022/09/10 10:14:43;;;;;;;4.87;3.93;;;15.70;99.90;;;;;;5011599;28;20404;-84
2022/09/10 10:17:29;;;;;;;2.08;1.80;;;15.60;99.90;;;;;;5011547;28;20430;-81
2022/09/10 10:20:03;;;;;;;3.47;3.13;;;15.50;99.90;;;;;;5081966;28;20379;-82
2022/09/10 10:22:31;;;;;;;5.22;3.90;;;15.50;99.90;;;;;;5113851;28;20355;-82
2022/09/10 10:25:04;;;;;;;4.53;4.13;;;15.40;99.90;;;;;;5113527;28;20450;-81
2022/09/10 10:27:57;;;;;;;3.75;3.22;;;15.50;99.90;;;;;;5113705;28;20399;-81
2022/09/10 10:30:27;;;;;;;3.97;3.20;;;15.40;99.90;;;;;;5110110;28;20363;-83
2022/09/10 10:32:56;;;;;;;3.30;2.75;;;15.30;99.90;;;;;;5113681;28;20490;-83
2022/09/10 10:35:44;;;;;;;3.47;2.40;;;15.20;99.90;;;;;;5113247;28;20462;-82
2022/09/10 10:38:32;;;;;;;6.38;2.67;;;15.00;99.90;;;;;;5113422;28;20369;-82
2022/09/10 10:41:11;;;;;;;3.50;2.40;;;15.00;99.90;;;;;;5113125;28;20382;-82
2022/09/10 10:44:02;;;;;;;3.05;1.90;;;14.90;99.90;;;;;;5113484;28;20420;-82
2022/09/10 10:46:54;;;;;;;2.25;1.98;;;14.70;99.90;;;;;;5113508;28;20401;-81
2022/09/10 10:49:49;;;;;;;3.22;2.10;;;14.60;99.90;;;;;;5113488;28;20435;-81
2022/09/10 10:52:25;;;;;;;2.90;2.40;;;14.50;99.90;;;;;;5113307;28;20426;-82
2022/09/10 10:55:07;;;;;;;3.65;2.10;;;14.50;99.90;;;;;;5113493;28;20399;-81
2022/09/10 10:57:54;;;;;;;2.70;2.40;;;14.30;99.90;;;;;;5113545;28;20885;-82
2022/09/10 11:00:21;;;;;;;4.47;2.80;;;14.30;99.90;;;;;;5113008;28;20378;-81
2022/09/10 11:03:20;;;;;;;2.77;2.47;;;14.20;99.90;;;;;;5112805;28;20363;-81
2022/09/10 11:06:07;;;;;;;3.55;2.20;;;14.20;99.90;;;;;;5113198;28;20450;-81
2022/09/10 11:09:01;;;;;;;2.50;1.98;;;14.20;99.90;;;;;;5112583;28;20411;-81
2022/09/10 11:11:45;;;;;;;1.92;1.73;;;14.20;99.90;;;;;;5112925;28;20362;-81
2022/09/10 11:14:34;;;;;;;3.17;2.10;;;14.20;99.90;;;;;;5112918;28;20433;-82
2022/09/10 11:17:33;;;;;;;1.77;1.67;;;14.20;99.90;;;;;;5117149;28;20476;-82
2022/09/10 11:20:13;;;;;;;2.67;1.70;;;14.20;99.90;;;;;;5119943;28;20378;-82
2022/09/10 11:23:04;;;;;;;4.68;2.00;;;14.10;99.90;;;;;;5119523;28;20714;-82
2022/09/10 11:25:38;;;;;;;3.33;1.90;;;13.70;99.90;;;;;;5100791;28;20470;-81
2022/09/10 11:28:21;;;;;;;4.43;1.88;;;14.10;99.90;;;;;;5119529;28;20371;-81
2022/09/10 11:31:00;;;;;;;5.05;2.00;;;14.10;99.90;;;;;;5119806;28;20691;-81
2022/09/10 11:33:57;;;;;;;5.95;1.98;;;14.00;99.90;;;;;;5101029;28;20386;-82
2022/09/10 11:36:30;;;;;;;6.45;2.00;;;14.00;99.90;;;;;;5119114;28;20378;-81
2022/09/10 11:39:23;;;;;;;5.40;1.90;;;13.90;99.90;;;;;;5119538;28;20434;-81
2022/09/10 11:41:54;;;;;;;6.23;3.23;;;13.90;99.90;;;;;;5120066;28;20362;-81
2022/09/10 11:45:18;;;;;;;7.35;3.90;;;13.80;99.90;;;;;;5100985;28;20402;-82
2022/09/10 11:47:57;;;;;;;8.63;5.18;;;13.80;99.90;;;;;;5036905;28;20884;-81
2022/09/10 11:51:05;;;;;;;7.90;4.43;;;13.80;99.90;;;;;;5020314;28;20822;-82
2022/09/10 11:53:33;;;;;;;6.68;4.65;;;13.80;99.90;;;;;;5016933;28;20469;-81
2022/09/10 11:56:17;;;;;;;5.03;3.00;;;13.70;99.90;;;;;;5016638;28;20495;-81
2022/09/10 11:58:57;;;;;;;3.60;2.20;;;13.80;99.90;;;;;;5017574;28;20387;-82
2022/09/10 12:01:40;;;;;;;2.42;1.60;;;13.90;99.90;;;;;;5017571;28;20383;-80
2022/09/10 12:04:48;;;;;;;2.13;1.20;;;14.00;99.90;;;;;;5020285;28;20383;-81
2022/09/10 12:07:17;;;;;;;0.95;0.93;;;14.10;99.90;;;;;;4961993;28;20380;-82
2022/09/10 12:10:22;;;;;;;1.80;0.80;;;14.30;99.90;;;;;;4943895;28;20408;-80
2022/09/10 12:12:52;;;;;;;3.63;2.17;;;14.40;99.90;;;;;;4939921;29;20413;-84
2022/09/10 12:15:19;;;;;;;4.65;2.60;;;14.50;99.90;;;;;;4939709;29;20413;-81
2022/09/10 12:18:00;;;;;;;7.50;6.00;;;14.50;99.90;;;;;;4943622;28;20384;-82
2022/09/10 12:20:43;;;;;;;5.15;4.63;;;14.50;99.90;;;;;;4958876;29;20471;-81
2022/09/10 12:23:38;;;;;;;3.90;2.47;;;14.50;99.90;;;;;;4958594;28;20773;-84
2022/09/10 12:26:15;;;;;;;3.40;2.50;;;14.40;99.90;;;;;;4957034;29;20830;-82
2022/09/10 12:28:42;;;;;;;4.27;2.60;;;14.40;99.90;;;;;;4955698;28;20417;-81
2022/09/10 12:31:14;;;;;;;5.18;2.80;;;14.30;99.90;;;;;;4955327;29;20444;-86
2022/09/10 12:33:44;;;;;;;7.28;2.30;;;14.20;99.90;;;;;;4955421;29;20409;-81
2022/09/10 12:36:34;;;;;;;6.22;2.10;;;14.10;99.90;;;;;;4955678;29;20412;-83
2022/09/10 12:39:26;;;;;;;1.42;0.98;;;14.10;99.90;;;;;;4955135;29;20384;-82
2022/09/10 12:41:55;;;;;;;1.63;1.00;;;14.10;99.90;;;;;;4954745;29;20388;-82
2022/09/10 12:44:33;;;;;;;9.45;3.50;;;14.10;99.90;;;;;;4998137;28;20965;-84
2022/09/10 12:47:16;;;;;;;14.63;2.65;;;14.10;99.90;;;;;;5033555;28;20385;-81
2022/09/10 12:49:57;;;;;;;7.43;2.40;;;14.00;99.90;;;;;;5092315;28;20450;-81
2022/09/10 12:52:49;;;;;;;9.30;2.30;;;13.90;99.90;;;;;;5115345;28;20370;-82
2022/09/10 12:55:49;;;;;;;6.65;2.35;;;13.90;99.90;;;;;;5115727;28;20441;-82
2022/09/10 12:58:34;;;;;;;7.38;1.80;;;13.80;99.90;;;;;;5115946;28;20838;-81
2022/09/10 13:01:02;;;;;;;5.00;1.80;;;13.60;99.90;;;;;;5115164;28;20443;-81
2022/09/10 13:03:30;;;;;;;5.88;2.03;;;13.70;99.90;;;;;;5115044;28;20420;-85
2022/09/10 13:06:03;;;;;;;6.63;2.47;;;13.60;99.90;;;;;;5115053;28;20366;-81
2022/09/10 13:08:43;;;;;;;5.00;2.10;;;13.50;99.90;;;;;;5096483;28;20408;-84
2022/09/10 13:11:23;;;;;;;3.63;1.60;;;13.50;99.90;;;;;;5114985;28;20371;-81
2022/09/10 13:14:00;;;;;;;3.17;1.30;;;13.40;99.90;;;;;;5096517;28;20390;-82
2022/09/10 13:16:27;;;;;;;4.53;1.30;;;13.40;99.90;;;;;;5114761;28;20882;-87
2022/09/10 13:19:18;;;;;;;3.88;1.70;;;13.40;99.90;;;;;;5114727;28;20405;-82
2022/09/10 13:21:49;;;;;;;2.83;1.20;;;13.50;99.90;;;;;;5114292;28;20407;-85
2022/09/10 13:24:36;;;;;;;5.28;1.50;;;13.50;99.90;;;;;;5096406;28;20374;-86